sensor_id;sensor_type;location;lat;lon;timestamp;P1;durP1;ratioP1;P2;durP2;ratioP2
30133;SDS011;16946;49.984;10.672;2022-11-25T00:00:04;16.07;;;11.30;;
30133;SDS011;16946;49.984;10.672;2022-11-25T00:00:35;16.88;;;10.40;;
30133;SDS011;16946;49.984;10.672;2022-11-25T00:01:16;14.23;;;11.33;;
30133;SDS011;16946;49.984;10.672;2022-11-25T00:01:48;18.50;;;11.55;;
30133;SDS011;16946;49.984;10.672;2022-11-25T00:02:19;14.23;;;10.55;;
30133;SDS011;16946;49.984;10.672;2022-11-25T00:02:51;12.77;;;10.30;;
30133;SDS011;16946;49.984;10.672;2022-11-25T00:03:21;12.43;;;9.27;;
30133;SDS011;16946;49.984;10.672;2022-11-25T00:03:52;13.07;;;10.27;;
30133;SDS011;16946;49.984;10.672;2022-11-25T00:04:25;12.07;;;9.07;;
30133;SDS011;16946;49.984;10.672;2022-11-25T00:04:55;13.17;;;10.60;;
30133;SDS011;16946;49.984;10.672;2022-11-25T00:05:26;16.73;;;12.07;;
30133;SDS011;16946;49.984;10.672;2022-11-25T00:06:06;14.25;;;10.27;;
30133;SDS011;16946;49.984;10.672;2022-11-25T00:06:37;17.65;;;11.85;;
30133;SDS011;16946;49.984;10.672;2022-11-25T00:07:08;17.23;;;10.23;;
30133;SDS011;16946;49.984;10.672;2022-11-25T00:07:38;14.07;;;11.03;;
30133;SDS011;16946;49.984;10.672;2022-11-25T00:08:09;18.33;;;11.80;;
30133;SDS011;16946;49.984;10.672;2022-11-25T00:08:40;13.67;;;10.60;;
30133;SDS011;16946;49.984;10.672;2022-11-25T00:09:11;14.18;;;11.32;;
30133;SDS011;16946;49.984;10.672;2022-11-25T00:09:42;19.43;;;13.73;;
30133;SDS011;16946;49.984;10.672;2022-11-25T00:10:12;17.07;;;12.80;;
30133;SDS011;16946;49.984;10.672;2022-11-25T00:10:43;21.33;;;13.80;;
30133;SDS011;16946;49.984;10.672;2022-11-25T00:11:13;20.57;;;12.90;;
30133;SDS011;16946;49.984;10.672;2022-11-25T00:11:45;22.00;;;14.85;;
30133;SDS011;16946;49.984;10.672;2022-11-25T00:12:15;28.17;;;15.80;;
30133;SDS011;16946;49.984;10.672;2022-11-25T00:12:46;19.70;;;13.13;;
30133;SDS011;16946;49.984;10.672;2022-11-25T00:13:17;19.43;;;14.47;;
30133;SDS011;16946;49.984;10.672;2022-11-25T00:13:47;19.07;;;13.73;;
30133;SDS011;16946;49.984;10.672;2022-11-25T00:14:18;18.33;;;13.83;;
30133;SDS011;16946;49.984;10.672;2022-11-25T00:14:49;24.47;;;17.07;;
30133;SDS011;16946;49.984;10.672;2022-11-25T00:15:19;21.90;;;14.60;;
30133;SDS011;16946;49.984;10.672;2022-11-25T00:15:50;18.77;;;13.80;;
30133;SDS011;16946;49.984;10.672;2022-11-25T00:16:20;22.57;;;15.97;;
30133;SDS011;16946;49.984;10.672;2022-11-25T00:16:52;19.98;;;13.30;;
30133;SDS011;16946;49.984;10.672;2022-11-25T00:17:22;20.97;;;14.13;;
30133;SDS011;16946;49.984;10.672;2022-11-25T00:17:53;17.53;;;13.50;;
30133;SDS011;16946;49.984;10.672;2022-11-25T00:18:23;21.20;;;14.00;;
30133;SDS011;16946;49.984;10.672;2022-11-25T00:18:54;17.40;;;12.03;;
30133;SDS011;16946;49.984;10.672;2022-11-25T00:19:26;11.77;;;10.10;;
30133;SDS011;16946;49.984;10.672;2022-11-25T00:19:56;9.47;;;8.47;;
30133;SDS011;16946;49.984;10.672;2022-11-25T00:20:30;13.88;;;10.07;;
30133;SDS011;16946;49.984;10.672;2022-11-25T00:21:08;11.40;;;8.83;;
30133;SDS011;16946;49.984;10.672;2022-11-25T00:21:40;12.77;;;9.80;;
30133;SDS011;16946;49.984;10.672;2022-11-25T00:22:10;13.30;;;9.27;;
30133;SDS011;16946;49.984;10.672;2022-11-25T00:22:41;9.50;;;8.47;;
30133;SDS011;16946;49.984;10.672;2022-11-25T00:23:11;13.87;;;10.77;;
30133;SDS011;16946;49.984;10.672;2022-11-25T00:23:42;12.73;;;10.20;;
30133;SDS011;16946;49.984;10.672;2022-11-25T00:24:13;13.33;;;9.70;;
30133;SDS011;16946;49.984;10.672;2022-11-25T00:24:45;10.80;;;8.40;;
30133;SDS011;16946;49.984;10.672;2022-11-25T00:25:15;12.60;;;8.97;;
30133;SDS011;16946;49.984;10.672;2022-11-25T00:25:46;13.60;;;10.27;;
30133;SDS011;16946;49.984;10.672;2022-11-25T00:26:16;13.70;;;9.30;;
30133;SDS011;16946;49.984;10.672;2022-11-25T00:26:47;11.53;;;9.13;;
30133;SDS011;16946;49.984;10.672;2022-11-25T00:27:17;13.93;;;9.93;;
30133;SDS011;16946;49.984;10.672;2022-11-25T00:27:50;13.43;;;10.07;;
30133;SDS011;16946;49.984;10.672;2022-11-25T00:28:21;12.35;;;9.63;;
30133;SDS011;16946;49.984;10.672;2022-11-25T00:28:52;12.00;;;9.63;;
30133;SDS011;16946;49.984;10.672;2022-11-25T00:29:23;13.40;;;9.80;;
30133;SDS011;16946;49.984;10.672;2022-11-25T00:29:53;11.83;;;8.50;;
30133;SDS011;16946;49.984;10.672;2022-11-25T00:30:24;11.10;;;8.53;;
30133;SDS011;16946;49.984;10.672;2022-11-25T00:30:54;17.67;;;10.40;;
30133;SDS011;16946;49.984;10.672;2022-11-25T00:31:26;14.47;;;10.90;;
30133;SDS011;16946;49.984;10.672;2022-11-25T00:31:58;13.25;;;9.20;;
30133;SDS011;16946;49.984;10.672;2022-11-25T00:32:29;11.97;;;9.97;;
30133;SDS011;16946;49.984;10.672;2022-11-25T00:32:59;16.63;;;11.17;;
30133;SDS011;16946;49.984;10.672;2022-11-25T00:33:30;13.50;;;9.67;;
30133;SDS011;16946;49.984;10.672;2022-11-25T00:34:00;11.90;;;8.97;;
30133;SDS011;16946;49.984;10.672;2022-11-25T00:34:31;10.18;;;8.65;;
30133;SDS011;16946;49.984;10.672;2022-11-25T00:35:02;9.13;;;8.13;;
30133;SDS011;16946;49.984;10.672;2022-11-25T00:35:35;9.83;;;8.10;;
30133;SDS011;16946;49.984;10.672;2022-11-25T00:36:08;12.43;;;9.40;;
30133;SDS011;16946;49.984;10.672;2022-11-25T00:36:48;11.05;;;8.45;;
30133;SDS011;16946;49.984;10.672;2022-11-25T00:37:19;11.53;;;8.23;;
30133;SDS011;16946;49.984;10.672;2022-11-25T00:37:49;8.67;;;7.53;;
30133;SDS011;16946;49.984;10.672;2022-11-25T00:38:20;11.87;;;8.13;;
30133;SDS011;16946;49.984;10.672;2022-11-25T00:38:54;9.40;;;7.57;;
30133;SDS011;16946;49.984;10.672;2022-11-25T00:39:29;9.65;;;8.02;;
30133;SDS011;16946;49.984;10.672;2022-11-25T00:39:59;11.60;;;8.07;;
30133;SDS011;16946;49.984;10.672;2022-11-25T00:40:30;9.77;;;7.17;;
30133;SDS011;16946;49.984;10.672;2022-11-25T00:41:00;10.13;;;7.37;;
30133;SDS011;16946;49.984;10.672;2022-11-25T00:41:49;7.40;;;6.70;;
30133;SDS011;16946;49.984;10.672;2022-11-25T00:42:39;8.85;;;7.55;;
30133;SDS011;16946;49.984;10.672;2022-11-25T00:43:28;12.30;;;8.73;;
30133;SDS011;16946;49.984;10.672;2022-11-25T00:44:18;13.95;;;9.20;;
30133;SDS011;16946;49.984;10.672;2022-11-25T00:45:09;12.88;;;8.05;;
30133;SDS011;16946;49.984;10.672;2022-11-25T00:45:39;12.50;;;8.87;;
30133;SDS011;16946;49.984;10.672;2022-11-25T00:46:10;11.30;;;8.40;;
30133;SDS011;16946;49.984;10.672;2022-11-25T00:46:40;17.23;;;9.60;;
30133;SDS011;16946;49.984;10.672;2022-11-25T00:47:12;17.55;;;10.60;;
30133;SDS011;16946;49.984;10.672;2022-11-25T00:47:47;12.80;;;8.98;;
30133;SDS011;16946;49.984;10.672;2022-11-25T00:48:18;14.87;;;9.43;;
30133;SDS011;16946;49.984;10.672;2022-11-25T00:48:48;15.17;;;10.03;;
30133;SDS011;16946;49.984;10.672;2022-11-25T00:49:19;15.70;;;9.87;;
30133;SDS011;16946;49.984;10.672;2022-11-25T00:49:50;23.33;;;11.90;;
30133;SDS011;16946;49.984;10.672;2022-11-25T00:50:22;14.93;;;9.60;;
30133;SDS011;16946;49.984;10.672;2022-11-25T00:50:52;15.37;;;9.73;;
30133;SDS011;16946;49.984;10.672;2022-11-25T00:51:23;14.27;;;9.43;;
30133;SDS011;16946;49.984;10.672;2022-11-25T00:51:54;17.93;;;10.37;;
30133;SDS011;16946;49.984;10.672;2022-11-25T00:52:25;13.97;;;8.97;;
30133;SDS011;16946;49.984;10.672;2022-11-25T00:52:56;17.80;;;10.15;;
30133;SDS011;16946;49.984;10.672;2022-11-25T00:53:26;10.97;;;8.83;;
30133;SDS011;16946;49.984;10.672;2022-11-25T00:53:59;12.35;;;8.77;;
30133;SDS011;16946;49.984;10.672;2022-11-25T00:54:30;16.00;;;10.33;;
30133;SDS011;16946;49.984;10.672;2022-11-25T00:55:00;14.03;;;8.87;;
30133;SDS011;16946;49.984;10.672;2022-11-25T00:55:31;12.33;;;8.83;;
30133;SDS011;16946;49.984;10.672;2022-11-25T00:56:21;11.25;;;7.88;;
30133;SDS011;16946;49.984;10.672;2022-11-25T00:56:52;12.17;;;7.87;;
30133;SDS011;16946;49.984;10.672;2022-11-25T00:57:23;13.40;;;8.83;;
30133;SDS011;16946;49.984;10.672;2022-11-25T00:57:53;20.83;;;9.93;;
30133;SDS011;16946;49.984;10.672;2022-11-25T00:58:25;15.60;;;9.57;;
30133;SDS011;16946;49.984;10.672;2022-11-25T00:58:56;16.45;;;8.90;;
30133;SDS011;16946;49.984;10.672;2022-11-25T00:59:27;12.93;;;9.33;;
30133;SDS011;16946;49.984;10.672;2022-11-25T00:59:57;12.97;;;9.87;;
30133;SDS011;16946;49.984;10.672;2022-11-25T01:00:28;15.17;;;9.30;;
30133;SDS011;16946;49.984;10.672;2022-11-25T01:01:00;12.83;;;9.53;;
30133;SDS011;16946;49.984;10.672;2022-11-25T01:01:31;16.42;;;9.88;;
30133;SDS011;16946;49.984;10.672;2022-11-25T01:02:02;14.32;;;8.98;;
30133;SDS011;16946;49.984;10.672;2022-11-25T01:02:33;17.70;;;10.57;;
30133;SDS011;16946;49.984;10.672;2022-11-25T01:03:03;17.53;;;9.43;;
30133;SDS011;16946;49.984;10.672;2022-11-25T01:03:34;16.53;;;10.30;;
30133;SDS011;16946;49.984;10.672;2022-11-25T01:04:06;15.98;;;9.90;;
30133;SDS011;16946;49.984;10.672;2022-11-25T01:04:37;18.77;;;9.52;;
30133;SDS011;16946;49.984;10.672;2022-11-25T01:05:08;11.85;;;9.15;;
30133;SDS011;16946;49.984;10.672;2022-11-25T01:05:38;14.50;;;9.90;;
30133;SDS011;16946;49.984;10.672;2022-11-25T01:06:09;16.43;;;10.97;;
30133;SDS011;16946;49.984;10.672;2022-11-25T01:06:40;15.05;;;10.13;;
30133;SDS011;16946;49.984;10.672;2022-11-25T01:07:11;16.70;;;10.90;;
30133;SDS011;16946;49.984;10.672;2022-11-25T01:07:42;17.27;;;10.83;;
30133;SDS011;16946;49.984;10.672;2022-11-25T01:08:13;16.70;;;10.97;;
30133;SDS011;16946;49.984;10.672;2022-11-25T01:08:43;15.17;;;10.10;;
30133;SDS011;16946;49.984;10.672;2022-11-25T01:09:14;15.97;;;9.87;;
30133;SDS011;16946;49.984;10.672;2022-11-25T01:09:45;16.00;;;10.57;;
30133;SDS011;16946;49.984;10.672;2022-11-25T01:10:16;14.25;;;9.45;;
30133;SDS011;16946;49.984;10.672;2022-11-25T01:10:47;15.43;;;10.30;;
30133;SDS011;16946;49.984;10.672;2022-11-25T01:11:19;14.63;;;8.80;;
30133;SDS011;16946;49.984;10.672;2022-11-25T01:11:50;14.07;;;10.10;;
30133;SDS011;16946;49.984;10.672;2022-11-25T01:12:22;14.68;;;9.80;;
30133;SDS011;16946;49.984;10.672;2022-11-25T01:12:52;14.57;;;9.80;;
30133;SDS011;16946;49.984;10.672;2022-11-25T01:13:23;12.60;;;9.97;;
30133;SDS011;16946;49.984;10.672;2022-11-25T01:13:53;15.10;;;9.00;;
30133;SDS011;16946;49.984;10.672;2022-11-25T01:14:25;12.63;;;9.95;;
30133;SDS011;16946;49.984;10.672;2022-11-25T01:14:56;14.80;;;10.53;;
30133;SDS011;16946;49.984;10.672;2022-11-25T01:15:26;16.47;;;9.37;;
30133;SDS011;16946;49.984;10.672;2022-11-25T01:15:59;15.73;;;11.20;;
30133;SDS011;16946;49.984;10.672;2022-11-25T01:16:31;13.98;;;10.85;;
30133;SDS011;16946;49.984;10.672;2022-11-25T01:17:02;15.50;;;10.23;;
30133;SDS011;16946;49.984;10.672;2022-11-25T01:17:32;16.00;;;9.67;;
30133;SDS011;16946;49.984;10.672;2022-11-25T01:18:03;13.97;;;10.00;;
30133;SDS011;16946;49.984;10.672;2022-11-25T01:18:33;14.80;;;10.30;;
30133;SDS011;16946;49.984;10.672;2022-11-25T01:19:04;16.03;;;11.23;;
30133;SDS011;16946;49.984;10.672;2022-11-25T01:19:35;17.00;;;11.73;;
30133;SDS011;16946;49.984;10.672;2022-11-25T01:20:09;15.40;;;10.30;;
30133;SDS011;16946;49.984;10.672;2022-11-25T01:20:40;12.40;;;9.05;;
30133;SDS011;16946;49.984;10.672;2022-11-25T01:21:14;13.60;;;9.77;;
30133;SDS011;16946;49.984;10.672;2022-11-25T01:21:46;17.05;;;10.07;;
30133;SDS011;16946;49.984;10.672;2022-11-25T01:22:17;14.80;;;10.63;;
30133;SDS011;16946;49.984;10.672;2022-11-25T01:22:47;13.23;;;10.40;;
30133;SDS011;16946;49.984;10.672;2022-11-25T01:23:18;14.50;;;9.07;;
30133;SDS011;16946;49.984;10.672;2022-11-25T01:23:48;14.73;;;10.43;;
30133;SDS011;16946;49.984;10.672;2022-11-25T01:24:20;14.13;;;10.30;;
30133;SDS011;16946;49.984;10.672;2022-11-25T01:24:51;17.05;;;11.18;;
30133;SDS011;16946;49.984;10.672;2022-11-25T01:25:21;17.23;;;10.37;;
30133;SDS011;16946;49.984;10.672;2022-11-25T01:25:52;14.23;;;10.43;;
30133;SDS011;16946;49.984;10.672;2022-11-25T01:26:23;14.23;;;9.13;;
30133;SDS011;16946;49.984;10.672;2022-11-25T01:26:54;13.05;;;8.93;;
30133;SDS011;16946;49.984;10.672;2022-11-25T01:27:25;14.53;;;9.73;;
30133;SDS011;16946;49.984;10.672;2022-11-25T01:27:55;15.63;;;10.40;;
30133;SDS011;16946;49.984;10.672;2022-11-25T01:28:26;16.97;;;10.97;;
30133;SDS011;16946;49.984;10.672;2022-11-25T01:29:00;14.50;;;10.20;;
30133;SDS011;16946;49.984;10.672;2022-11-25T01:29:32;13.10;;;10.55;;
30133;SDS011;16946;49.984;10.672;2022-11-25T01:30:03;13.67;;;10.10;;
30133;SDS011;16946;49.984;10.672;2022-11-25T01:30:34;13.18;;;9.15;;
30133;SDS011;16946;49.984;10.672;2022-11-25T01:31:07;13.73;;;9.50;;
30133;SDS011;16946;49.984;10.672;2022-11-25T01:31:40;17.45;;;9.65;;
30133;SDS011;16946;49.984;10.672;2022-11-25T01:32:11;16.47;;;9.87;;
30133;SDS011;16946;49.984;10.672;2022-11-25T01:32:41;13.20;;;8.93;;
30133;SDS011;16946;49.984;10.672;2022-11-25T01:33:12;15.47;;;10.07;;
30133;SDS011;16946;49.984;10.672;2022-11-25T01:33:43;13.77;;;10.00;;
30133;SDS011;16946;49.984;10.672;2022-11-25T01:34:18;13.73;;;9.82;;
30133;SDS011;16946;49.984;10.672;2022-11-25T01:34:51;13.77;;;9.00;;
30133;SDS011;16946;49.984;10.672;2022-11-25T01:35:22;16.93;;;9.97;;
30133;SDS011;16946;49.984;10.672;2022-11-25T01:35:52;12.73;;;9.90;;
30133;SDS011;16946;49.984;10.672;2022-11-25T01:36:23;17.40;;;11.33;;
30133;SDS011;16946;49.984;10.672;2022-11-25T01:36:54;12.98;;;10.02;;
30133;SDS011;16946;49.984;10.672;2022-11-25T01:37:25;14.90;;;10.07;;
30133;SDS011;16946;49.984;10.672;2022-11-25T01:37:55;21.57;;;9.93;;
30133;SDS011;16946;49.984;10.672;2022-11-25T01:38:26;15.70;;;9.73;;
30133;SDS011;16946;49.984;10.672;2022-11-25T01:38:57;15.83;;;11.10;;
30133;SDS011;16946;49.984;10.672;2022-11-25T01:39:29;14.60;;;10.88;;
30133;SDS011;16946;49.984;10.672;2022-11-25T01:39:59;18.27;;;10.53;;
30133;SDS011;16946;49.984;10.672;2022-11-25T01:40:30;15.40;;;10.80;;
30133;SDS011;16946;49.984;10.672;2022-11-25T01:41:02;14.77;;;9.90;;
30133;SDS011;16946;49.984;10.672;2022-11-25T01:41:33;14.45;;;9.52;;
30133;SDS011;16946;49.984;10.672;2022-11-25T01:42:04;13.77;;;9.30;;
30133;SDS011;16946;49.984;10.672;2022-11-25T01:42:37;13.90;;;9.60;;
30133;SDS011;16946;49.984;10.672;2022-11-25T01:43:12;13.55;;;9.70;;
30133;SDS011;16946;49.984;10.672;2022-11-25T01:44:00;17.30;;;10.18;;
30133;SDS011;16946;49.984;10.672;2022-11-25T01:45:09;12.82;;;9.50;;
30133;SDS011;16946;49.984;10.672;2022-11-25T01:46:18;14.05;;;9.77;;
30133;SDS011;16946;49.984;10.672;2022-11-25T01:47:45;18.77;;;10.75;;
30133;SDS011;16946;49.984;10.672;2022-11-25T01:48:21;18.83;;;10.83;;
30133;SDS011;16946;49.984;10.672;2022-11-25T01:49:00;21.27;;;11.90;;
30133;SDS011;16946;49.984;10.672;2022-11-25T01:49:39;18.40;;;12.00;;
30133;SDS011;16946;49.984;10.672;2022-11-25T01:50:13;15.48;;;9.80;;
30133;SDS011;16946;49.984;10.672;2022-11-25T01:50:47;19.92;;;11.57;;
30133;SDS011;16946;49.984;10.672;2022-11-25T01:51:25;22.88;;;12.68;;
30133;SDS011;16946;49.984;10.672;2022-11-25T01:52:53;16.92;;;11.95;;
30133;SDS011;16946;49.984;10.672;2022-11-25T01:53:25;16.80;;;10.63;;
30133;SDS011;16946;49.984;10.672;2022-11-25T01:53:57;19.47;;;11.40;;
30133;SDS011;16946;49.984;10.672;2022-11-25T01:54:32;21.35;;;11.40;;
30133;SDS011;16946;49.984;10.672;2022-11-25T01:55:13;19.02;;;10.80;;
30133;SDS011;16946;49.984;10.672;2022-11-25T01:55:51;17.90;;;11.60;;
30133;SDS011;16946;49.984;10.672;2022-11-25T01:56:26;18.92;;;11.65;;
30133;SDS011;16946;49.984;10.672;2022-11-25T01:57:04;17.10;;;11.30;;
30133;SDS011;16946;49.984;10.672;2022-11-25T01:58:17;19.27;;;11.82;;
30133;SDS011;16946;49.984;10.672;2022-11-25T01:58:53;17.77;;;11.23;;
30133;SDS011;16946;49.984;10.672;2022-11-25T01:59:25;21.40;;;11.73;;
30133;SDS011;16946;49.984;10.672;2022-11-25T01:59:57;20.45;;;11.25;;
30133;SDS011;16946;49.984;10.672;2022-11-25T02:00:30;19.38;;;12.00;;
30133;SDS011;16946;49.984;10.672;2022-11-25T02:01:01;19.87;;;12.07;;
30133;SDS011;16946;49.984;10.672;2022-11-25T02:01:32;19.05;;;12.45;;
30133;SDS011;16946;49.984;10.672;2022-11-25T02:02:03;16.73;;;10.40;;
30133;SDS011;16946;49.984;10.672;2022-11-25T02:02:34;17.30;;;11.27;;
30133;SDS011;16946;49.984;10.672;2022-11-25T02:03:04;17.83;;;11.13;;
30133;SDS011;16946;49.984;10.672;2022-11-25T02:03:39;16.77;;;10.77;;
30133;SDS011;16946;49.984;10.672;2022-11-25T02:04:12;18.85;;;11.60;;
30133;SDS011;16946;49.984;10.672;2022-11-25T02:04:45;21.50;;;12.35;;
30133;SDS011;16946;49.984;10.672;2022-11-25T02:05:20;20.58;;;11.57;;
30133;SDS011;16946;49.984;10.672;2022-11-25T02:06:16;18.48;;;11.18;;
30133;SDS011;16946;49.984;10.672;2022-11-25T02:06:54;16.52;;;10.65;;
30133;SDS011;16946;49.984;10.672;2022-11-25T02:07:30;18.35;;;11.90;;
30133;SDS011;16946;49.984;10.672;2022-11-25T02:08:09;21.75;;;12.25;;
30133;SDS011;16946;49.984;10.672;2022-11-25T02:08:42;17.95;;;12.43;;
30133;SDS011;16946;49.984;10.672;2022-11-25T02:09:17;19.42;;;12.02;;
30133;SDS011;16946;49.984;10.672;2022-11-25T02:09:50;20.08;;;11.85;;
30133;SDS011;16946;49.984;10.672;2022-11-25T02:10:23;18.83;;;11.82;;
30133;SDS011;16946;49.984;10.672;2022-11-25T02:10:56;17.45;;;13.18;;
30133;SDS011;16946;49.984;10.672;2022-11-25T02:11:27;19.35;;;13.02;;
30133;SDS011;16946;49.984;10.672;2022-11-25T02:12:00;16.77;;;11.90;;
30133;SDS011;16946;49.984;10.672;2022-11-25T02:12:33;20.55;;;12.05;;
30133;SDS011;16946;49.984;10.672;2022-11-25T02:13:05;15.55;;;11.40;;
30133;SDS011;16946;49.984;10.672;2022-11-25T02:13:36;17.00;;;11.47;;
30133;SDS011;16946;49.984;10.672;2022-11-25T02:14:07;15.10;;;10.27;;
30133;SDS011;16946;49.984;10.672;2022-11-25T02:14:39;18.50;;;11.25;;
30133;SDS011;16946;49.984;10.672;2022-11-25T02:15:10;20.67;;;11.60;;
30133;SDS011;16946;49.984;10.672;2022-11-25T02:15:42;18.08;;;12.18;;
30133;SDS011;16946;49.984;10.672;2022-11-25T02:16:13;18.50;;;11.80;;
30133;SDS011;16946;49.984;10.672;2022-11-25T02:16:44;17.80;;;11.50;;
30133;SDS011;16946;49.984;10.672;2022-11-25T02:17:14;17.13;;;11.17;;
30133;SDS011;16946;49.984;10.672;2022-11-25T02:17:45;15.50;;;10.90;;
30133;SDS011;16946;49.984;10.672;2022-11-25T02:18:16;16.37;;;10.83;;
30133;SDS011;16946;49.984;10.672;2022-11-25T02:18:47;16.30;;;10.63;;
30133;SDS011;16946;49.984;10.672;2022-11-25T02:19:22;15.70;;;10.55;;
30133;SDS011;16946;49.984;10.672;2022-11-25T02:20:35;16.88;;;11.57;;
30133;SDS011;16946;49.984;10.672;2022-11-25T02:21:08;16.75;;;11.98;;
30133;SDS011;16946;49.984;10.672;2022-11-25T02:21:40;18.53;;;11.93;;
30133;SDS011;16946;49.984;10.672;2022-11-25T02:22:18;15.10;;;10.77;;
30133;SDS011;16946;49.984;10.672;2022-11-25T02:23:41;16.98;;;9.95;;
30133;SDS011;16946;49.984;10.672;2022-11-25T02:24:45;17.98;;;11.10;;
30133;SDS011;16946;49.984;10.672;2022-11-25T02:25:19;18.40;;;11.18;;
30133;SDS011;16946;49.984;10.672;2022-11-25T02:25:54;17.58;;;11.93;;
30133;SDS011;16946;49.984;10.672;2022-11-25T02:26:24;17.33;;;11.30;;
30133;SDS011;16946;49.984;10.672;2022-11-25T02:26:55;17.60;;;11.20;;
30133;SDS011;16946;49.984;10.672;2022-11-25T02:27:26;19.65;;;12.00;;
30133;SDS011;16946;49.984;10.672;2022-11-25T02:27:59;19.97;;;12.43;;
30133;SDS011;16946;49.984;10.672;2022-11-25T02:28:33;15.52;;;10.93;;
30133;SDS011;16946;49.984;10.672;2022-11-25T02:29:04;16.70;;;11.27;;
30133;SDS011;16946;49.984;10.672;2022-11-25T02:29:34;16.30;;;11.50;;
30133;SDS011;16946;49.984;10.672;2022-11-25T02:30:06;19.83;;;11.63;;
30133;SDS011;16946;49.984;10.672;2022-11-25T02:30:37;15.73;;;10.82;;
30133;SDS011;16946;49.984;10.672;2022-11-25T02:31:09;17.55;;;11.88;;
30133;SDS011;16946;49.984;10.672;2022-11-25T02:31:40;18.20;;;11.50;;
30133;SDS011;16946;49.984;10.672;2022-11-25T02:32:10;15.83;;;11.10;;
30133;SDS011;16946;49.984;10.672;2022-11-25T02:32:42;20.80;;;11.73;;
30133;SDS011;16946;49.984;10.672;2022-11-25T02:33:16;14.82;;;10.93;;
30133;SDS011;16946;49.984;10.672;2022-11-25T02:33:47;16.73;;;11.88;;
30133;SDS011;16946;49.984;10.672;2022-11-25T02:34:18;19.17;;;12.52;;
30133;SDS011;16946;49.984;10.672;2022-11-25T02:34:49;17.80;;;11.57;;
30133;SDS011;16946;49.984;10.672;2022-11-25T02:36:03;16.23;;;10.90;;
30133;SDS011;16946;49.984;10.672;2022-11-25T02:36:36;16.33;;;10.32;;
30133;SDS011;16946;49.984;10.672;2022-11-25T02:37:07;15.30;;;10.77;;
30133;SDS011;16946;49.984;10.672;2022-11-25T02:37:37;17.27;;;11.43;;
30133;SDS011;16946;49.984;10.672;2022-11-25T02:38:16;18.77;;;11.57;;
30133;SDS011;16946;49.984;10.672;2022-11-25T02:38:54;17.77;;;10.85;;
30133;SDS011;16946;49.984;10.672;2022-11-25T02:39:26;20.27;;;12.75;;
30133;SDS011;16946;49.984;10.672;2022-11-25T02:39:57;19.13;;;11.70;;
30133;SDS011;16946;49.984;10.672;2022-11-25T02:40:28;17.73;;;11.63;;
30133;SDS011;16946;49.984;10.672;2022-11-25T02:41:07;22.48;;;12.38;;
30133;SDS011;16946;49.984;10.672;2022-11-25T02:41:52;18.52;;;12.27;;
30133;SDS011;16946;49.984;10.672;2022-11-25T02:42:26;20.38;;;12.68;;
30133;SDS011;16946;49.984;10.672;2022-11-25T02:42:59;18.00;;;13.43;;
30133;SDS011;16946;49.984;10.672;2022-11-25T02:43:30;33.10;;;23.65;;
30133;SDS011;16946;49.984;10.672;2022-11-25T02:44:01;30.48;;;25.30;;
30133;SDS011;16946;49.984;10.672;2022-11-25T02:44:32;21.58;;;13.57;;
30133;SDS011;16946;49.984;10.672;2022-11-25T02:45:02;20.53;;;13.90;;
30133;SDS011;16946;49.984;10.672;2022-11-25T02:45:44;17.95;;;12.30;;
30133;SDS011;16946;49.984;10.672;2022-11-25T02:46:17;22.20;;;14.45;;
30133;SDS011;16946;49.984;10.672;2022-11-25T02:46:50;18.48;;;12.85;;
30133;SDS011;16946;49.984;10.672;2022-11-25T02:47:21;20.47;;;13.13;;
30133;SDS011;16946;49.984;10.672;2022-11-25T02:47:51;19.00;;;12.10;;
30133;SDS011;16946;49.984;10.672;2022-11-25T02:48:22;20.07;;;11.93;;
30133;SDS011;16946;49.984;10.672;2022-11-25T02:48:55;18.95;;;12.50;;
30133;SDS011;16946;49.984;10.672;2022-11-25T02:49:26;15.80;;;11.20;;
30133;SDS011;16946;49.984;10.672;2022-11-25T02:49:57;15.53;;;9.67;;
30133;SDS011;16946;49.984;10.672;2022-11-25T02:50:27;15.27;;;11.00;;
30133;SDS011;16946;49.984;10.672;2022-11-25T02:50:58;19.57;;;12.27;;
30133;SDS011;16946;49.984;10.672;2022-11-25T02:51:30;18.88;;;12.25;;
30133;SDS011;16946;49.984;10.672;2022-11-25T02:52:01;17.58;;;11.80;;
30133;SDS011;16946;49.984;10.672;2022-11-25T02:52:32;16.20;;;11.17;;
30133;SDS011;16946;49.984;10.672;2022-11-25T02:53:02;15.37;;;10.37;;
30133;SDS011;16946;49.984;10.672;2022-11-25T02:53:33;13.13;;;9.73;;
30133;SDS011;16946;49.984;10.672;2022-11-25T02:54:04;12.83;;;10.13;;
30133;SDS011;16946;49.984;10.672;2022-11-25T02:54:35;20.30;;;10.90;;
30133;SDS011;16946;49.984;10.672;2022-11-25T02:55:05;16.13;;;11.17;;
30133;SDS011;16946;49.984;10.672;2022-11-25T02:55:36;18.10;;;10.67;;
30133;SDS011;16946;49.984;10.672;2022-11-25T02:56:07;16.10;;;10.10;;
30133;SDS011;16946;49.984;10.672;2022-11-25T02:56:38;20.17;;;11.57;;
30133;SDS011;16946;49.984;10.672;2022-11-25T02:57:09;15.68;;;10.18;;
30133;SDS011;16946;49.984;10.672;2022-11-25T02:57:40;23.73;;;13.23;;
30133;SDS011;16946;49.984;10.672;2022-11-25T02:58:10;15.27;;;11.33;;
30133;SDS011;16946;49.984;10.672;2022-11-25T02:58:41;18.50;;;12.30;;
30133;SDS011;16946;49.984;10.672;2022-11-25T02:59:11;18.70;;;12.23;;
30133;SDS011;16946;49.984;10.672;2022-11-25T02:59:42;20.80;;;13.63;;
30133;SDS011;16946;49.984;10.672;2022-11-25T03:00:13;20.97;;;12.50;;
30133;SDS011;16946;49.984;10.672;2022-11-25T03:00:44;24.02;;;14.32;;
30133;SDS011;16946;49.984;10.672;2022-11-25T03:01:15;18.13;;;12.80;;
30133;SDS011;16946;49.984;10.672;2022-11-25T03:01:45;18.03;;;11.13;;
30133;SDS011;16946;49.984;10.672;2022-11-25T03:02:16;21.87;;;11.77;;
30133;SDS011;16946;49.984;10.672;2022-11-25T03:02:47;15.63;;;10.70;;
30133;SDS011;16946;49.984;10.672;2022-11-25T03:03:21;20.35;;;13.38;;
30133;SDS011;16946;49.984;10.672;2022-11-25T03:03:51;19.87;;;12.80;;
30133;SDS011;16946;49.984;10.672;2022-11-25T03:04:22;18.87;;;11.13;;
30133;SDS011;16946;49.984;10.672;2022-11-25T03:04:53;19.47;;;11.63;;
30133;SDS011;16946;49.984;10.672;2022-11-25T03:05:23;20.40;;;12.00;;
30133;SDS011;16946;49.984;10.672;2022-11-25T03:05:54;23.60;;;12.50;;
30133;SDS011;16946;49.984;10.672;2022-11-25T03:06:24;16.73;;;11.60;;
30133;SDS011;16946;49.984;10.672;2022-11-25T03:06:55;20.17;;;13.17;;
30133;SDS011;16946;49.984;10.672;2022-11-25T03:07:26;18.10;;;12.30;;
30133;SDS011;16946;49.984;10.672;2022-11-25T03:07:56;16.70;;;11.50;;
30133;SDS011;16946;49.984;10.672;2022-11-25T03:08:27;20.07;;;12.33;;
30133;SDS011;16946;49.984;10.672;2022-11-25T03:08:58;19.07;;;12.90;;
30133;SDS011;16946;49.984;10.672;2022-11-25T03:09:29;23.73;;;14.55;;
30133;SDS011;16946;49.984;10.672;2022-11-25T03:09:59;19.20;;;11.83;;
30133;SDS011;16946;49.984;10.672;2022-11-25T03:10:30;21.60;;;12.97;;
30133;SDS011;16946;49.984;10.672;2022-11-25T03:11:00;17.70;;;11.40;;
30133;SDS011;16946;49.984;10.672;2022-11-25T03:11:31;18.07;;;12.37;;
30133;SDS011;16946;49.984;10.672;2022-11-25T03:12:20;19.70;;;13.95;;
30133;SDS011;16946;49.984;10.672;2022-11-25T03:12:51;23.60;;;15.37;;
30133;SDS011;16946;49.984;10.672;2022-11-25T03:13:21;20.30;;;13.07;;